createdAt,value
2018-02-08T00:00:41.491Z,0.00
2018-02-08T00:01:41.492Z,0.00
2018-02-08T00:02:41.476Z,0.00
2018-02-08T00:03:41.481Z,0.00
2018-02-08T00:04:41.489Z,0.00
2018-02-08T00:05:41.592Z,0.00
2018-02-08T00:06:41.731Z,0.00
2018-02-08T00:09:42.009Z,0.00
2018-02-08T00:10:42.429Z,0.00
2018-02-08T00:11:41.552Z,0.00
2018-02-08T00:12:41.550Z,0.00
2018-02-08T00:13:41.724Z,0.00
2018-02-08T00:14:41.572Z,0.00
2018-02-08T00:15:41.579Z,0.00
2018-02-08T00:16:41.583Z,0.00
2018-02-08T00:17:41.589Z,0.00
2018-02-08T00:18:41.605Z,0.00
2018-02-08T00:19:41.606Z,0.00
2018-02-08T00:20:41.620Z,0.00
2018-02-08T00:21:41.621Z,0.00
2018-02-08T00:22:41.783Z,0.00
2018-02-08T00:23:41.870Z,0.00
2018-02-08T00:26:42.202Z,0.00
2018-02-08T00:28:42.474Z,0.00
2018-02-08T00:29:41.701Z,0.00
2018-02-08T00:30:41.720Z,0.00
2018-02-08T00:31:41.734Z,0.00
2018-02-08T00:32:41.715Z,0.00
2018-02-08T00:33:41.720Z,0.00
2018-02-08T00:34:41.729Z,0.00
2018-02-08T00:35:41.837Z,0.00
2018-02-08T00:36:41.756Z,0.00
2018-02-08T00:37:41.754Z,0.00
2018-02-08T00:38:41.830Z,0.00
2018-02-08T00:39:41.771Z,0.00
2018-02-08T00:40:41.827Z,0.00
2018-02-08T00:41:41.786Z,0.00
2018-02-08T00:42:42.352Z,0.00
2018-02-08T00:44:41.810Z,0.00
2018-02-08T00:45:41.823Z,0.00
2018-02-08T00:46:41.905Z,0.00
2018-02-08T00:47:42.480Z,0.00
2018-02-08T00:48:41.912Z,0.00
2018-02-08T00:49:41.852Z,0.00
2018-02-08T00:50:41.860Z,0.00
2018-02-08T00:51:41.867Z,0.00
2018-02-08T00:52:41.874Z,0.00
2018-02-08T00:53:41.881Z,0.00
2018-02-08T00:54:41.889Z,0.00
2018-02-08T00:55:41.947Z,0.00
2018-02-08T00:56:42.009Z,0.00
2018-02-08T00:58:41.943Z,0.00
2018-02-08T00:59:42.701Z,0.00
2018-02-08T01:00:41.949Z,0.00
2018-02-08T01:01:42.022Z,0.00
2018-02-08T01:02:41.953Z,0.00
2018-02-08T01:03:41.971Z,0.00
2018-02-08T01:04:41.975Z,0.00
2018-02-08T01:05:41.978Z,0.00
2018-02-08T01:06:42.039Z,0.00
2018-02-08T01:08:42.002Z,0.00
2018-02-08T01:09:42.014Z,0.00
2018-02-08T01:10:42.021Z,0.00
2018-02-08T01:11:42.028Z,0.00
2018-02-08T01:12:42.036Z,0.00
2018-02-08T01:14:42.110Z,0.00
2018-02-08T01:15:42.058Z,0.00
2018-02-08T01:16:42.067Z,0.00
2018-02-08T01:17:42.076Z,0.00
2018-02-08T01:18:42.081Z,0.00
2018-02-08T01:19:42.112Z,0.00
2018-02-08T01:20:42.100Z,0.00
2018-02-08T01:21:42.107Z,0.00
2018-02-08T01:22:42.116Z,0.00
2018-02-08T01:23:42.129Z,0.00
2018-02-08T01:24:42.322Z,0.00
2018-02-08T01:25:42.187Z,0.00
2018-02-08T01:26:42.151Z,0.00
2018-02-08T01:27:42.158Z,0.00
2018-02-08T01:28:42.271Z,0.00
2018-02-08T01:29:42.923Z,0.00
2018-02-08T01:30:42.473Z,0.00
2018-02-08T01:31:42.448Z,0.00
2018-02-08T01:32:42.223Z,0.00
2018-02-08T01:33:42.202Z,0.00
2018-02-08T01:34:42.260Z,0.00
2018-02-08T01:35:42.218Z,0.00
2018-02-08T01:36:42.235Z,0.00
2018-02-08T01:37:42.562Z,0.00
2018-02-08T01:38:42.244Z,0.00
2018-02-08T01:39:42.260Z,0.00
2018-02-08T01:41:42.924Z,0.00
2018-02-08T01:42:42.301Z,0.00
2018-02-08T01:44:42.381Z,0.00
2018-02-08T01:45:42.505Z,0.00
2018-02-08T01:47:42.979Z,0.00
2018-02-08T01:48:43.048Z,0.00
2018-02-08T01:49:43.845Z,0.00
2018-02-08T01:50:42.340Z,0.00
2018-02-08T01:51:42.347Z,0.00
2018-02-08T01:52:42.362Z,0.00
2018-02-08T01:53:42.361Z,0.00
2018-02-08T01:54:42.368Z,0.00
2018-02-08T01:55:42.380Z,0.00
2018-02-08T01:59:42.916Z,0.00
2018-02-08T02:00:42.416Z,0.00
2018-02-08T02:01:42.429Z,0.00
2018-02-08T02:02:42.577Z,0.00
2018-02-08T02:03:42.691Z,0.00
2018-02-08T02:04:42.570Z,0.00
2018-02-08T02:05:42.462Z,0.00
2018-02-08T02:06:42.466Z,0.00
2018-02-08T02:07:42.473Z,0.00
2018-02-08T02:08:42.492Z,0.00
2018-02-08T02:09:42.549Z,0.00
2018-02-08T02:10:42.496Z,0.00
2018-02-08T02:11:42.529Z,0.00
2018-02-08T02:12:42.510Z,0.00
2018-02-08T02:13:42.533Z,0.00
2018-02-08T02:14:42.557Z,0.00
2018-02-08T02:15:42.535Z,0.00
2018-02-08T02:17:42.984Z,0.00
2018-02-08T02:19:43.090Z,0.00
2018-02-08T02:20:42.600Z,0.00
2018-02-08T02:21:42.580Z,0.00
2018-02-08T02:22:42.827Z,0.00
2018-02-08T02:23:42.599Z,0.00
2018-02-08T02:24:42.606Z,0.00
2018-02-08T02:25:42.613Z,0.00
2018-02-08T02:27:43.073Z,0.00
2018-02-08T02:28:42.656Z,0.00
2018-02-08T02:29:42.759Z,0.00
2018-02-08T02:30:42.765Z,0.00
2018-02-08T02:31:42.663Z,0.00
2018-02-08T02:32:42.673Z,0.00
2018-02-08T02:33:42.876Z,0.00
2018-02-08T02:34:42.939Z,0.00
2018-02-08T02:35:43.046Z,0.00
2018-02-08T02:36:43.527Z,0.00
2018-02-08T02:37:42.773Z,0.00
2018-02-08T02:38:42.820Z,0.00
2018-02-08T02:39:42.726Z,0.00
2018-02-08T02:40:42.739Z,0.00
2018-02-08T02:41:42.983Z,0.00
2018-02-08T02:42:43.685Z,0.00
2018-02-08T02:43:43.535Z,0.00
2018-02-08T02:44:43.199Z,0.00
2018-02-08T02:45:42.976Z,0.00
2018-02-08T02:46:42.884Z,0.00
2018-02-08T02:47:43.359Z,0.00
2018-02-08T02:48:42.967Z,0.00
2018-02-08T02:49:43.186Z,0.00
2018-02-08T02:51:42.878Z,0.00
2018-02-08T02:52:42.827Z,0.00
2018-02-08T02:53:42.834Z,0.00
2018-02-08T02:54:42.870Z,0.00
2018-02-08T02:55:42.851Z,0.00
2018-02-08T02:56:42.867Z,0.00
2018-02-08T02:57:42.919Z,0.00
2018-02-08T02:58:42.931Z,0.00
2018-02-08T02:59:42.956Z,0.00
2018-02-08T03:00:43.041Z,0.00
2018-02-08T03:01:42.897Z,0.00
2018-02-08T03:02:42.906Z,0.00
2018-02-08T03:03:42.913Z,0.00
2018-02-08T03:04:42.945Z,0.00
2018-02-08T03:06:42.986Z,0.00
2018-02-08T03:07:43.398Z,0.00
2018-02-08T03:08:44.268Z,0.00
2018-02-08T03:09:42.968Z,0.00
2018-02-08T03:10:43.060Z,0.00
2018-02-08T03:11:44.954Z,0.00
2018-02-08T03:12:43.846Z,0.00
2018-02-08T03:13:43.153Z,0.00
2018-02-08T03:14:43.030Z,0.00
2018-02-08T03:16:43.017Z,0.00
2018-02-08T03:18:43.358Z,0.00
2018-02-08T03:19:43.453Z,0.00
2018-02-08T03:20:43.046Z,0.00
2018-02-08T03:21:43.062Z,0.00
2018-02-08T03:22:43.142Z,0.00
2018-02-08T03:23:43.071Z,0.00
2018-02-08T03:24:43.084Z,0.00
2018-02-08T03:25:43.393Z,0.00
2018-02-08T03:26:43.092Z,0.00
2018-02-08T03:27:43.101Z,0.00
2018-02-08T03:28:43.114Z,0.00
2018-02-08T03:29:43.220Z,0.00
2018-02-08T03:30:43.182Z,0.00
2018-02-08T03:31:43.576Z,0.00
2018-02-08T03:32:43.303Z,0.00
2018-02-08T03:33:43.250Z,0.00
2018-02-08T03:34:43.158Z,0.00
2018-02-08T03:35:43.212Z,0.00
2018-02-08T03:36:43.356Z,0.00
2018-02-08T03:37:43.548Z,0.00
2018-02-08T03:39:43.340Z,0.00
2018-02-08T03:41:43.227Z,0.00
2018-02-08T03:42:43.266Z,0.00
2018-02-08T03:43:43.230Z,0.00
2018-02-08T03:44:43.232Z,0.00
2018-02-08T03:45:43.252Z,0.00
2018-02-08T03:46:43.431Z,0.00
2018-02-08T03:47:43.787Z,0.00
2018-02-08T03:48:43.667Z,0.00
2018-02-08T03:49:43.339Z,0.00
2018-02-08T03:50:43.432Z,0.00
2018-02-08T03:51:44.214Z,0.00
2018-02-08T03:52:43.401Z,0.00
2018-02-08T03:53:43.302Z,0.00
2018-02-08T03:54:43.312Z,0.00
2018-02-08T03:55:43.396Z,0.00
2018-02-08T03:56:43.733Z,0.00
2018-02-08T03:57:43.784Z,0.00
2018-02-08T03:58:43.352Z,0.00
2018-02-08T03:59:43.351Z,0.00
2018-02-08T04:00:43.357Z,0.00
2018-02-08T04:01:43.394Z,0.00
2018-02-08T04:02:43.375Z,0.00
2018-02-08T04:03:43.379Z,0.00
2018-02-08T04:04:43.471Z,0.00
2018-02-08T04:05:43.401Z,0.00
2018-02-08T04:06:43.412Z,0.00
2018-02-08T04:07:43.422Z,0.00
2018-02-08T04:08:43.555Z,0.00
2018-02-08T04:09:43.427Z,0.00
2018-02-08T04:10:43.468Z,0.00
2018-02-08T04:11:43.537Z,0.00
2018-02-08T04:12:43.515Z,0.00
2018-02-08T04:13:43.729Z,0.00
2018-02-08T04:14:43.468Z,0.00
2018-02-08T04:15:43.471Z,0.00
2018-02-08T04:16:43.629Z,0.00
2018-02-08T04:17:44.055Z,0.00
2018-02-08T04:18:43.511Z,0.00
2018-02-08T04:19:43.503Z,0.00
2018-02-08T04:20:43.570Z,0.00
2018-02-08T04:21:43.688Z,0.00
2018-02-08T04:22:43.525Z,0.00
2018-02-08T04:24:43.542Z,0.00
2018-02-08T04:25:43.728Z,0.00
2018-02-08T04:26:44.331Z,0.00
2018-02-08T04:27:43.620Z,0.00
2018-02-08T04:28:43.797Z,0.00
2018-02-08T04:29:43.741Z,0.00
2018-02-08T04:30:43.603Z,0.00
2018-02-08T04:31:43.595Z,0.00
2018-02-08T04:32:43.611Z,0.00
2018-02-08T04:33:43.608Z,0.00
2018-02-08T04:34:43.667Z,0.00
2018-02-08T04:35:43.707Z,0.00
2018-02-08T04:36:44.016Z,0.00
2018-02-08T04:37:43.796Z,0.00
2018-02-08T04:38:43.666Z,0.00
2018-02-08T04:39:43.654Z,0.00
2018-02-08T04:40:43.741Z,0.00
2018-02-08T04:41:43.670Z,0.00
2018-02-08T04:42:43.879Z,0.00
2018-02-08T04:43:43.948Z,0.00
2018-02-08T04:44:43.712Z,0.00
2018-02-08T04:46:43.880Z,0.00
2018-02-08T04:47:44.288Z,0.00
2018-02-08T04:48:43.727Z,0.00
2018-02-08T04:49:43.738Z,0.00
2018-02-08T04:51:44.163Z,0.00
2018-02-08T04:52:43.888Z,0.00
2018-02-08T04:53:43.762Z,0.00
2018-02-08T04:56:44.377Z,0.00
2018-02-08T04:57:43.995Z,0.00
2018-02-08T04:58:44.378Z,0.00
2018-02-08T04:59:43.819Z,0.00
2018-02-08T05:00:43.812Z,0.00
2018-02-08T05:01:43.826Z,0.00
2018-02-08T05:02:43.827Z,0.00
2018-02-08T05:03:43.887Z,0.00
2018-02-08T05:04:43.898Z,0.00
2018-02-08T05:05:43.858Z,0.00
2018-02-08T05:06:44.461Z,0.00
2018-02-08T05:07:43.868Z,0.00
2018-02-08T05:08:43.874Z,0.00
2018-02-08T05:09:43.882Z,0.00
2018-02-08T05:10:43.890Z,0.00
2018-02-08T05:11:44.005Z,0.00
2018-02-08T05:13:43.946Z,0.00
2018-02-08T05:14:43.933Z,0.00
2018-02-08T05:15:43.931Z,0.00
2018-02-08T05:17:44.040Z,0.00
2018-02-08T05:18:43.948Z,0.00
2018-02-08T05:19:43.955Z,0.00
2018-02-08T05:20:43.965Z,0.00
2018-02-08T05:22:44.319Z,0.00
2018-02-08T05:23:44.089Z,0.00
2018-02-08T05:24:44.108Z,0.00
2018-02-08T05:26:44.843Z,0.00
2018-02-08T05:27:44.044Z,0.00
2018-02-08T05:28:44.175Z,0.00
2018-02-08T05:29:44.983Z,0.00
2018-02-08T05:30:44.152Z,0.00
2018-02-08T05:31:44.053Z,4.00
2018-02-08T05:32:44.052Z,4.00
2018-02-08T05:33:44.062Z,4.00
2018-02-08T05:34:44.269Z,4.00
2018-02-08T05:35:44.152Z,4.00
2018-02-08T05:37:44.871Z,4.00
2018-02-08T05:38:44.393Z,4.00
2018-02-08T05:39:44.163Z,4.00
2018-02-08T05:41:44.136Z,4.00
2018-02-08T05:42:44.927Z,4.00
2018-02-08T05:43:44.302Z,4.00
2018-02-08T05:45:45.291Z,4.00
2018-02-08T05:46:44.913Z,4.00
2018-02-08T05:47:45.522Z,4.00
2018-02-08T05:49:44.181Z,4.00
2018-02-08T05:50:44.237Z,4.00
2018-02-08T05:51:44.684Z,4.00
2018-02-08T05:53:46.178Z,4.00
2018-02-08T05:54:44.384Z,4.00
2018-02-08T05:55:44.281Z,4.00
2018-02-08T05:56:44.649Z,4.00
2018-02-08T05:59:44.429Z,4.00
2018-02-08T06:00:45.139Z,4.00
2018-02-08T06:01:46.024Z,4.00
2018-02-08T06:02:44.693Z,4.00
2018-02-08T06:03:44.424Z,4.00
2018-02-08T06:04:44.306Z,4.00
2018-02-08T06:05:45.442Z,4.00
2018-02-08T06:06:44.596Z,4.00
2018-02-08T06:07:44.751Z,4.00
2018-02-08T06:08:44.689Z,4.00
2018-02-08T06:09:44.435Z,4.00
2018-02-08T06:10:45.932Z,4.00
2018-02-08T06:11:44.908Z,4.00
2018-02-08T06:12:44.478Z,4.00
2018-02-08T06:13:44.414Z,4.00
2018-02-08T06:14:44.728Z,4.00
2018-02-08T06:15:44.396Z,4.00
2018-02-08T06:16:44.507Z,4.00
2018-02-08T06:17:45.904Z,4.00
2018-02-08T06:18:45.164Z,4.00
2018-02-08T06:19:44.459Z,4.00
2018-02-08T06:20:44.516Z,4.00
2018-02-08T06:22:44.453Z,4.00
2018-02-08T06:24:44.477Z,0.00
2018-02-08T06:25:45.354Z,4.00
2018-02-08T06:27:44.719Z,4.00
2018-02-08T06:29:44.475Z,4.00
2018-02-08T06:32:45.140Z,8.00
2018-02-08T06:33:44.825Z,4.00
2018-02-08T06:34:45.323Z,8.00
2018-02-08T06:35:46.206Z,4.00
2018-02-08T06:36:44.552Z,8.00
2018-02-08T06:37:44.619Z,8.00
2018-02-08T06:38:44.546Z,12.00
2018-02-08T06:40:44.561Z,12.00
2018-02-08T06:41:44.619Z,16.00
2018-02-08T06:42:44.581Z,16.00
2018-02-08T06:43:45.222Z,20.00
2018-02-08T06:46:44.781Z,28.00
2018-02-08T06:47:44.684Z,32.00
2018-02-08T06:50:46.082Z,44.00
2018-02-08T06:51:44.718Z,52.00
2018-02-08T06:54:44.952Z,72.00
2018-02-08T06:55:46.380Z,84.00
2018-02-08T06:58:44.707Z,108.00
2018-02-08T06:59:44.901Z,120.00
2018-02-08T07:00:45.405Z,132.00
2018-02-08T07:01:45.729Z,144.00
2018-02-08T07:02:45.900Z,156.00
2018-02-08T07:03:45.829Z,168.00
2018-02-08T07:05:44.962Z,196.00
2018-02-08T07:06:45.261Z,212.00
2018-02-08T07:07:44.762Z,228.00
2018-02-08T07:08:44.972Z,248.00
2018-02-08T07:09:44.864Z,260.00
2018-02-08T07:10:44.797Z,276.00
2018-02-08T07:11:44.794Z,292.00
2018-02-08T07:12:45.386Z,308.00
2018-02-08T07:13:45.032Z,328.00
2018-02-08T07:14:44.917Z,344.00
2018-02-08T07:16:44.971Z,380.00
2018-02-08T07:17:45.467Z,400.00
2018-02-08T07:18:45.157Z,412.00
2018-02-08T07:19:44.986Z,428.00
2018-02-08T07:20:45.141Z,448.00
2018-02-08T07:23:45.077Z,496.00
2018-02-08T07:24:44.986Z,516.00
2018-02-08T07:25:45.097Z,532.00
2018-02-08T07:26:45.975Z,552.00
2018-02-08T07:27:44.954Z,568.00
2018-02-08T07:29:46.377Z,604.00
2018-02-08T07:30:45.702Z,624.00
2018-02-08T07:31:45.029Z,644.00
2018-02-08T07:32:45.903Z,660.00
2018-02-08T07:33:45.166Z,680.00
2018-02-08T07:34:44.993Z,696.00
2018-02-08T07:35:45.058Z,708.00
2018-02-08T07:36:45.129Z,724.00
2018-02-08T07:37:45.467Z,740.00
2018-02-08T07:38:44.976Z,752.00
2018-02-08T07:39:46.414Z,768.00
2018-02-08T07:41:45.122Z,800.00
2018-02-08T07:42:45.070Z,816.00
2018-02-08T07:43:46.367Z,836.00
2018-02-08T07:46:45.061Z,888.00
2018-02-08T07:48:45.535Z,944.00
2018-02-08T07:49:45.985Z,964.00
2018-02-08T07:50:45.073Z,984.00
2018-02-08T07:51:46.600Z,1004.00
2018-02-08T07:53:45.439Z,1048.00
2018-02-08T07:54:45.179Z,1064.00
2018-02-08T07:55:45.151Z,1084.00
2018-02-08T07:57:45.279Z,1140.00
2018-02-08T07:59:45.247Z,1204.00
2018-02-08T08:01:46.427Z,1272.00
2018-02-08T08:02:46.126Z,1312.00
2018-02-08T08:04:45.182Z,1416.00
2018-02-08T08:06:45.180Z,1496.00
2018-02-08T08:10:46.413Z,1632.00
2018-02-08T08:11:46.102Z,1668.00
2018-02-08T08:12:46.457Z,1696.00
2018-02-08T08:13:45.361Z,1720.00
2018-02-08T08:14:45.240Z,1716.00
2018-02-08T08:15:46.746Z,1712.00
2018-02-08T08:17:45.872Z,1800.00
2018-02-08T08:18:45.736Z,1828.00
2018-02-08T08:19:45.277Z,1848.00
2018-02-08T08:20:45.284Z,1920.00
2018-02-08T08:21:45.338Z,2032.00
2018-02-08T08:22:45.299Z,2156.00
2018-02-08T08:23:45.307Z,2204.00
2018-02-08T08:24:45.330Z,2192.00
2018-02-08T08:25:45.322Z,2164.00
2018-02-08T08:26:45.337Z,2172.00
2018-02-08T08:28:46.580Z,2172.00
2018-02-08T08:30:45.665Z,2276.00
2018-02-08T08:31:45.411Z,2288.00
2018-02-08T08:32:45.389Z,2324.00
2018-02-08T08:33:45.618Z,2312.00
2018-02-08T08:34:45.494Z,2308.00
2018-02-08T08:35:45.461Z,2288.00
2018-02-08T08:36:45.409Z,2264.00
2018-02-08T08:37:45.417Z,2240.00
2018-02-08T08:38:45.510Z,2192.00
2018-02-08T08:39:45.439Z,2128.00
2018-02-08T08:40:45.498Z,2020.00
2018-02-08T08:41:45.515Z,1824.00
2018-02-08T08:42:45.467Z,1744.00
2018-02-08T08:43:46.068Z,1804.00
2018-02-08T08:44:45.487Z,1748.00
2018-02-08T08:45:45.783Z,1592.00
2018-02-08T08:47:45.566Z,1604.00
2018-02-08T08:48:46.465Z,1628.00
2018-02-08T08:49:45.512Z,1640.00
2018-02-08T08:50:45.847Z,1528.00
2018-02-08T08:52:45.550Z,1484.00
2018-02-08T08:53:45.552Z,1524.00
2018-02-08T08:54:45.556Z,1552.00
2018-02-08T08:55:45.564Z,1456.00
2018-02-08T08:56:45.571Z,1448.00
2018-02-08T08:57:45.597Z,1460.00
2018-02-08T08:58:45.586Z,1432.00
2018-02-08T08:59:45.641Z,1396.00
2018-02-08T09:00:46.103Z,1524.00
2018-02-08T09:01:45.612Z,1560.00
2018-02-08T09:02:45.618Z,1492.00
2018-02-08T09:03:45.626Z,1556.00
2018-02-08T09:04:45.641Z,1408.00
2018-02-08T09:05:45.654Z,1392.00
2018-02-08T09:08:45.703Z,1400.00
2018-02-08T09:09:45.795Z,1344.00
2018-02-08T09:10:46.170Z,1328.00
2018-02-08T09:11:45.861Z,1392.00
2018-02-08T09:12:46.397Z,1460.00
2018-02-08T09:14:46.476Z,1712.00
2018-02-08T09:15:46.419Z,1772.00
2018-02-08T09:17:45.875Z,1596.00
2018-02-08T09:18:46.159Z,1556.00
2018-02-08T09:19:46.743Z,1632.00
2018-02-08T09:20:47.229Z,1456.00
2018-02-08T09:21:46.089Z,1396.00
2018-02-08T09:22:45.954Z,1412.00
2018-02-08T09:23:45.993Z,1416.00
2018-02-08T09:27:47.505Z,1440.00
2018-02-08T09:29:47.708Z,1552.00
2018-02-08T09:31:46.944Z,1532.00
2018-02-08T09:32:45.963Z,1632.00
2018-02-08T09:33:46.548Z,1700.00
2018-02-08T09:34:46.437Z,1636.00
2018-02-08T09:35:45.922Z,1820.00
2018-02-08T09:36:46.115Z,1600.00
2018-02-08T09:38:46.556Z,2088.00
2018-02-08T09:39:46.064Z,2356.00
2018-02-08T09:41:46.789Z,1952.00
2018-02-08T09:42:46.741Z,1892.00
2018-02-08T09:43:47.431Z,1476.00
2018-02-08T09:46:47.361Z,2020.00
2018-02-08T09:49:46.706Z,2684.00
2018-02-08T09:50:46.882Z,2660.00
2018-02-08T09:52:47.076Z,2704.00
2018-02-08T09:55:47.553Z,2684.00
2018-02-08T09:57:46.242Z,2708.00
2018-02-08T09:58:46.374Z,2704.00
2018-02-08T09:59:47.496Z,2708.00
2018-02-08T10:00:46.886Z,2692.00
2018-02-08T10:01:46.780Z,2704.00
2018-02-08T10:02:46.404Z,2720.00
2018-02-08T10:03:46.351Z,2744.00
2018-02-08T10:04:46.201Z,2788.00
2018-02-08T10:05:46.612Z,2812.00
2018-02-08T10:06:46.368Z,2844.00
2018-02-08T10:07:46.429Z,2832.00
2018-02-08T10:08:46.544Z,2852.00
2018-02-08T10:09:46.425Z,2872.00
2018-02-08T10:10:46.420Z,2900.00
2018-02-08T10:11:46.281Z,2936.00
2018-02-08T10:12:46.256Z,2908.00
2018-02-08T10:13:46.310Z,2940.00
2018-02-08T10:14:46.262Z,2828.00
2018-02-08T10:15:46.238Z,2880.00
2018-02-08T10:18:47.794Z,3024.00
2018-02-08T10:20:46.499Z,3000.00
2018-02-08T10:22:46.937Z,2964.00
2018-02-08T10:23:46.553Z,2976.00
2018-02-08T10:24:46.525Z,2992.00
2018-02-08T10:26:47.389Z,3044.00
2018-02-08T10:27:46.402Z,3024.00
2018-02-08T10:29:46.826Z,2740.00
2018-02-08T10:31:46.400Z,2760.00
2018-02-08T10:33:47.866Z,2896.00
2018-02-08T10:34:46.907Z,2936.00
2018-02-08T10:35:46.397Z,2972.00
2018-02-08T10:36:46.477Z,2892.00
2018-02-08T10:37:46.417Z,2640.00
2018-02-08T10:38:48.007Z,2728.00
2018-02-08T10:39:47.123Z,2888.00
2018-02-08T10:40:47.582Z,2852.00
2018-02-08T10:41:46.892Z,2884.00
2018-02-08T10:42:46.708Z,2924.00
2018-02-08T10:43:47.252Z,2948.00
2018-02-08T10:44:46.880Z,2960.00
2018-02-08T10:45:46.939Z,2984.00
2018-02-08T10:46:47.250Z,2996.00
2018-02-08T10:48:47.105Z,2976.00
2018-02-08T10:49:46.867Z,2992.00
2018-02-08T10:50:46.852Z,2992.00
2018-02-08T10:51:46.792Z,3016.00
2018-02-08T10:52:46.560Z,3008.00
2018-02-08T10:53:46.562Z,3040.00
2018-02-08T10:54:46.565Z,3044.00
2018-02-08T10:55:46.588Z,3088.00
2018-02-08T10:56:46.584Z,3136.00
2018-02-08T10:57:46.592Z,3136.00
2018-02-08T10:58:46.616Z,3060.00
2018-02-08T10:59:47.700Z,3064.00
2018-02-08T11:00:47.795Z,3144.00
2018-02-08T11:02:47.113Z,3224.00
2018-02-08T11:03:46.717Z,3244.00
2018-02-08T11:04:47.023Z,3236.00
2018-02-08T11:05:46.672Z,3216.00
2018-02-08T11:06:47.074Z,3232.00
2018-02-08T11:07:46.701Z,3240.00
2018-02-08T11:08:46.699Z,3244.00
2018-02-08T11:09:46.707Z,3256.00
2018-02-08T11:10:46.724Z,3284.00
2018-02-08T11:11:46.732Z,3284.00
2018-02-08T11:12:46.750Z,3284.00
2018-02-08T11:13:46.740Z,3272.00
2018-02-08T11:14:46.760Z,3272.00
2018-02-08T11:15:46.771Z,3268.00
2018-02-08T11:16:46.778Z,3256.00
2018-02-08T11:17:46.909Z,3268.00
2018-02-08T11:18:46.798Z,3268.00
2018-02-08T11:19:46.834Z,3272.00
2018-02-08T11:20:46.809Z,3272.00
2018-02-08T11:21:46.825Z,3276.00
2018-02-08T11:22:46.888Z,3288.00
2018-02-08T11:23:46.834Z,3260.00
2018-02-08T11:24:46.855Z,3264.00
2018-02-08T11:25:46.865Z,3244.00
2018-02-08T11:26:46.863Z,3280.00
2018-02-08T11:27:46.875Z,3296.00
2018-02-08T11:28:46.893Z,3320.00
2018-02-08T11:29:46.889Z,3344.00
2018-02-08T11:30:46.910Z,3348.00
2018-02-08T11:31:46.921Z,3368.00
2018-02-08T11:32:46.934Z,3400.00
2018-02-08T11:34:46.947Z,3436.00
2018-02-08T11:35:46.948Z,3440.00
2018-02-08T11:36:46.965Z,3468.00
2018-02-08T11:37:46.967Z,3476.00
2018-02-08T11:38:46.987Z,3504.00
2018-02-08T11:39:46.998Z,3540.00
2018-02-08T11:40:47.005Z,3580.00
2018-02-08T11:41:47.003Z,3628.00
2018-02-08T11:42:47.024Z,3636.00
2018-02-08T11:43:47.024Z,3588.00
2018-02-08T11:44:47.046Z,3588.00
2018-02-08T11:45:47.042Z,3608.00
2018-02-08T11:46:47.064Z,3620.00
2018-02-08T11:47:47.065Z,3592.00
2018-02-08T11:48:47.070Z,3644.00
2018-02-08T11:49:47.081Z,3660.00
2018-02-08T11:50:47.090Z,3668.00
2018-02-08T11:51:47.101Z,3704.00
2018-02-08T11:52:47.221Z,3748.00
2018-02-08T11:53:47.118Z,3804.00
2018-02-08T11:54:47.129Z,3856.00
2018-02-08T11:55:47.154Z,3892.00
2018-02-08T11:56:47.150Z,3852.00
2018-02-08T11:57:47.159Z,3824.00
2018-02-08T11:58:47.169Z,3832.00
2018-02-08T11:59:47.189Z,3832.00
2018-02-08T12:00:47.199Z,3824.00
2018-02-08T12:01:47.210Z,3812.00
2018-02-08T12:02:47.230Z,3796.00
2018-02-08T12:03:47.219Z,3808.00
2018-02-08T12:04:47.229Z,3748.00
2018-02-08T12:05:47.362Z,3680.00
2018-02-08T12:06:47.246Z,3728.00
2018-02-08T12:07:47.258Z,3836.00
2018-02-08T12:08:47.270Z,3852.00
2018-02-08T12:09:47.276Z,3812.00
2018-02-08T12:10:47.285Z,3764.00
2018-02-08T12:11:47.296Z,3668.00
2018-02-08T12:12:47.506Z,3652.00
2018-02-08T12:13:47.322Z,3628.00
2018-02-08T12:14:47.327Z,3624.00
2018-02-08T12:15:47.368Z,3624.00
2018-02-08T12:16:47.346Z,3596.00
2018-02-08T12:17:47.646Z,3584.00
2018-02-08T12:18:47.375Z,3608.00
2018-02-08T12:19:47.473Z,3560.00
2018-02-08T12:20:47.390Z,3496.00
2018-02-08T12:21:47.392Z,3464.00
2018-02-08T12:22:47.413Z,3472.00
2018-02-08T12:23:48.089Z,3476.00
2018-02-08T12:25:47.445Z,3488.00
2018-02-08T12:26:47.443Z,3456.00
2018-02-08T12:27:47.464Z,3388.00
2018-02-08T12:28:47.463Z,3312.00
2018-02-08T12:29:47.477Z,3308.00
2018-02-08T12:30:47.498Z,3336.00
2018-02-08T12:31:47.647Z,3296.00
2018-02-08T12:32:47.594Z,3200.00
2018-02-08T12:33:47.522Z,3196.00
2018-02-08T12:34:47.665Z,3192.00
2018-02-08T12:35:47.658Z,3136.00
2018-02-08T12:36:48.004Z,3040.00
2018-02-08T12:37:47.623Z,3008.00
2018-02-08T12:38:47.673Z,3032.00
2018-02-08T12:39:47.573Z,3124.00
2018-02-08T12:40:47.765Z,3160.00
2018-02-08T12:41:47.592Z,3160.00
2018-02-08T12:42:47.613Z,3172.00
2018-02-08T12:43:47.628Z,3308.00
2018-02-08T12:44:47.660Z,3272.00
2018-02-08T12:45:47.646Z,3260.00
2018-02-08T12:46:47.642Z,3260.00
2018-02-08T12:47:47.652Z,3268.00
2018-02-08T12:48:47.664Z,3252.00
2018-02-08T12:49:47.684Z,3252.00
2018-02-08T12:50:47.692Z,3284.00
2018-02-08T12:51:47.690Z,3308.00
2018-02-08T12:52:47.712Z,3328.00
2018-02-08T12:53:47.766Z,3316.00
2018-02-08T12:54:47.733Z,3304.00
2018-02-08T12:55:47.741Z,3316.00
2018-02-08T12:56:47.741Z,3336.00
2018-02-08T12:57:47.762Z,3408.00
2018-02-08T12:58:47.770Z,3472.00
2018-02-08T12:59:48.190Z,3516.00
2018-02-08T13:00:47.780Z,3460.00
2018-02-08T13:01:47.814Z,3352.00
2018-02-08T13:02:47.817Z,3220.00
2018-02-08T13:03:47.820Z,3132.00
2018-02-08T13:04:47.820Z,3068.00
2018-02-08T13:05:47.828Z,3012.00
2018-02-08T13:06:47.839Z,3100.00
2018-02-08T13:07:47.862Z,3176.00
2018-02-08T13:08:47.858Z,3292.00
2018-02-08T13:09:47.867Z,3428.00
2018-02-08T13:10:47.890Z,3500.00
2018-02-08T13:11:47.890Z,3512.00
2018-02-08T13:12:47.897Z,3484.00
2018-02-08T13:13:47.940Z,3488.00
2018-02-08T13:14:47.919Z,3504.00
2018-02-08T13:15:47.927Z,3540.00
2018-02-08T13:16:47.949Z,3512.00
2018-02-08T13:17:47.947Z,3444.00
2018-02-08T13:18:47.969Z,3384.00
2018-02-08T13:19:48.151Z,3340.00
2018-02-08T13:20:47.978Z,3280.00
2018-02-08T13:21:47.988Z,3268.00
2018-02-08T13:22:47.998Z,3296.00
2018-02-08T13:23:48.179Z,3276.00
2018-02-08T13:24:48.017Z,3256.00
2018-02-08T13:25:48.038Z,3268.00
2018-02-08T13:26:48.049Z,3264.00
2018-02-08T13:27:48.058Z,3272.00
2018-02-08T13:28:48.072Z,3320.00
2018-02-08T13:29:48.066Z,3388.00
2018-02-08T13:30:48.088Z,3404.00
2018-02-08T13:31:48.099Z,3432.00
2018-02-08T13:32:48.134Z,3436.00
2018-02-08T13:33:48.123Z,3388.00
2018-02-08T13:34:48.118Z,3244.00
2018-02-08T13:35:48.141Z,3096.00
2018-02-08T13:36:48.137Z,2964.00
2018-02-08T13:37:48.158Z,3080.00
2018-02-08T13:38:48.161Z,3512.00
2018-02-08T13:39:48.228Z,3548.00
2018-02-08T13:40:48.179Z,3608.00
2018-02-08T13:41:48.198Z,3740.00
2018-02-08T13:42:48.198Z,4564.00
2018-02-08T13:43:48.218Z,5024.00
2018-02-08T13:44:48.252Z,3752.00
2018-02-08T13:45:48.228Z,3324.00
2018-02-08T13:46:48.247Z,3400.00
2018-02-08T13:47:48.247Z,4828.00
2018-02-08T13:48:48.312Z,5424.00
2018-02-08T13:49:48.279Z,5072.00
2018-02-08T13:50:48.292Z,5600.00
2018-02-08T13:51:48.429Z,7084.00
2018-02-08T13:52:48.896Z,5780.00
2018-02-08T13:53:48.335Z,3284.00
2018-02-08T13:54:48.319Z,3168.00
2018-02-08T13:55:48.341Z,4880.00
2018-02-08T13:56:48.348Z,5784.00
2018-02-08T13:57:48.348Z,5120.00
2018-02-08T13:58:48.360Z,5224.00
2018-02-08T13:59:48.371Z,7264.00
2018-02-08T14:00:48.390Z,6276.00
2018-02-08T14:01:48.390Z,3296.00
2018-02-08T14:02:48.400Z,3184.00
2018-02-08T14:03:48.427Z,5316.00
2018-02-08T14:04:48.423Z,5992.00
2018-02-08T14:05:48.431Z,5460.00
2018-02-08T14:06:48.457Z,5848.00
2018-02-08T14:07:48.464Z,6020.00
2018-02-08T14:08:48.482Z,4192.00
2018-02-08T14:09:48.473Z,3108.00
2018-02-08T14:10:48.484Z,5104.00
2018-02-08T14:11:49.932Z,6076.00
2018-02-08T14:12:49.673Z,5736.00
2018-02-08T14:13:49.447Z,6040.00
2018-02-08T14:14:48.527Z,5776.00
2018-02-08T14:15:48.549Z,3924.00
2018-02-08T14:16:48.549Z,3748.00
2018-02-08T14:17:48.568Z,5740.00
2018-02-08T14:18:48.569Z,6604.00
2018-02-08T14:19:48.589Z,6728.00
2018-02-08T14:20:48.611Z,6984.00
2018-02-08T14:21:48.600Z,4824.00
2018-02-08T14:22:48.625Z,3904.00
2018-02-08T14:23:48.638Z,6056.00
2018-02-08T14:24:48.920Z,6008.00
2018-02-08T14:25:48.642Z,5376.00
2018-02-08T14:26:48.662Z,4408.00
2018-02-08T14:27:48.663Z,3176.00
2018-02-08T14:28:48.786Z,2888.00